createdAt,value
2022-10-05T00:00:36.732Z,97159.66
2022-10-05T00:03:11.855Z,97161.31
2022-10-05T00:05:40.001Z,97156.19
2022-10-05T00:08:15.040Z,97156.63
2022-10-05T00:10:43.428Z,97153.75
2022-10-05T00:13:17.614Z,97153.13
2022-10-05T00:15:45.631Z,97148.19
2022-10-05T00:18:16.224Z,97140.41
2022-10-05T00:20:45.078Z,97142.50
2022-10-05T00:23:19.346Z,97148.22
2022-10-05T00:25:47.254Z,97146.56
2022-10-05T00:28:19.893Z,97141.22
2022-10-05T00:30:47.944Z,97149.66
2022-10-05T00:33:15.595Z,97145.38
2022-10-05T00:35:43.309Z,97144.97
2022-10-05T00:38:11.047Z,97152.53
2022-10-05T00:40:55.210Z,97147.44
2022-10-05T00:43:36.834Z,97141.47
2022-10-05T00:46:13.638Z,97151.94
2022-10-05T00:48:49.313Z,97145.59
2022-10-05T00:51:25.544Z,97150.31
2022-10-05T00:54:08.568Z,97154.59
2022-10-05T00:56:56.472Z,97141.69
2022-10-05T00:59:42.499Z,97142.94
2022-10-05T01:02:16.412Z,97141.69
2022-10-05T01:04:50.624Z,97143.75
2022-10-05T01:07:27.351Z,97143.34
2022-10-05T01:10:02.583Z,97141.28
2022-10-05T01:12:38.770Z,97132.69
2022-10-05T01:15:12.055Z,97135.75
2022-10-05T01:17:44.845Z,97134.72
2022-10-05T01:20:26.375Z,97135.78
2022-10-05T01:23:19.584Z,97135.16
2022-10-05T01:25:57.973Z,97126.53
2022-10-05T01:28:30.754Z,97087.34
2022-10-05T01:31:06.256Z,97113.84
2022-10-05T01:33:42.426Z,97116.69
2022-10-05T01:36:17.953Z,97122.41
2022-10-05T01:38:55.382Z,97118.75
2022-10-05T01:41:34.156Z,97114.63
2022-10-05T01:44:10.403Z,97114.66
2022-10-05T01:46:43.506Z,97122.66
2022-10-05T01:49:26.046Z,97124.69
2022-10-05T01:51:57.731Z,97125.72
2022-10-05T01:54:38.213Z,97126.53
2022-10-05T01:57:14.416Z,97124.91
2022-10-05T02:00:03.779Z,97123.47
2022-10-05T02:02:35.849Z,97132.69
2022-10-05T02:05:06.177Z,97129.84
2022-10-05T02:07:39.797Z,97131.22
2022-10-05T02:10:15.646Z,97127.75
2022-10-05T02:12:45.710Z,97113.41
2022-10-05T02:15:18.340Z,97116.25
2022-10-05T02:17:50.486Z,97118.13
2022-10-05T02:20:21.820Z,97118.53
2022-10-05T02:22:54.278Z,97115.47
2022-10-05T02:25:28.007Z,97114.41
2022-10-05T02:28:00.497Z,97111.78
2022-10-05T02:30:31.628Z,97102.31
2022-10-05T02:33:02.547Z,97111.78
2022-10-05T02:35:30.217Z,97122.22
2022-10-05T02:38:07.392Z,97116.06
2022-10-05T02:40:47.736Z,97119.56
2022-10-05T02:43:24.933Z,97113.81
2022-10-05T02:46:02.449Z,97115.69
2022-10-05T02:48:42.028Z,97111.16
2022-10-05T02:51:21.197Z,97115.03
2022-10-05T02:54:01.935Z,97096.19
2022-10-05T02:56:38.065Z,97105.63
2022-10-05T02:59:15.844Z,97110.31
2022-10-05T03:01:51.413Z,97113.00
2022-10-05T03:04:30.517Z,97116.84
2022-10-05T03:07:07.330Z,97111.53
2022-10-05T03:09:40.246Z,97110.53
2022-10-05T03:12:28.303Z,97105.22
2022-10-05T03:15:04.958Z,97106.84
2022-10-05T03:17:43.288Z,97099.84
2022-10-05T03:20:22.369Z,97095.97
2022-10-05T03:22:52.920Z,97099.88
2022-10-05T03:25:35.132Z,97038.13
2022-10-05T03:28:11.271Z,97099.66
2022-10-05T03:30:48.249Z,97091.25
2022-10-05T03:33:23.781Z,97094.25
2022-10-05T03:35:57.499Z,97094.25
2022-10-05T03:38:31.902Z,97093.63
2022-10-05T03:41:09.745Z,97100.19
2022-10-05T03:44:10.996Z,97094.81
2022-10-05T03:46:59.135Z,97093.81
2022-10-05T03:49:39.298Z,97094.03
2022-10-05T03:52:12.519Z,97098.75
2022-10-05T03:54:44.609Z,97095.44
2022-10-05T03:57:16.745Z,97105.28
2022-10-05T03:59:51.520Z,97108.34
2022-10-05T04:02:25.921Z,97100.56
2022-10-05T04:05:01.370Z,97105.06
2022-10-05T04:07:39.014Z,97106.31
2022-10-05T04:10:15.686Z,97101.81
2022-10-05T04:12:47.159Z,97103.44
2022-10-05T04:15:20.604Z,97105.06
2022-10-05T04:17:52.838Z,97107.94
2022-10-05T04:20:26.667Z,97113.72
2022-10-05T04:23:03.948Z,97112.09
2022-10-05T04:25:38.119Z,97099.31
2022-10-05T04:28:14.329Z,97117.78
2022-10-05T04:30:45.949Z,97111.56
2022-10-05T04:33:15.930Z,97113.63
2022-10-05T04:36:14.653Z,97116.06
2022-10-05T04:38:53.867Z,97112.00
2022-10-05T04:41:35.450Z,97112.38
2022-10-05T04:44:17.187Z,97095.97
2022-10-05T04:47:02.115Z,97101.13
2022-10-05T04:49:45.724Z,97112.56
2022-10-05T04:52:24.997Z,97108.06
2022-10-05T04:55:05.089Z,97113.22
2022-10-05T04:57:41.719Z,97115.69
2022-10-05T05:00:23.968Z,97113.59
2022-10-05T05:03:16.690Z,97121.16
2022-10-05T05:06:15.223Z,97126.31
2022-10-05T05:09:02.496Z,97131.63
2022-10-05T05:11:39.446Z,97122.34
2022-10-05T05:14:27.936Z,97138.97
2022-10-05T05:17:13.173Z,97137.31
2022-10-05T05:19:52.894Z,97144.50
2022-10-05T05:22:29.956Z,97145.56
2022-10-05T05:25:18.203Z,97139.00
2022-10-05T05:27:50.391Z,97140.88
2022-10-05T05:30:21.154Z,97143.38
2022-10-05T05:32:59.905Z,97135.75
2022-10-05T05:35:40.645Z,97138.88
2022-10-05T05:38:23.197Z,97134.53
2022-10-05T05:41:04.441Z,97125.97
2022-10-05T05:43:42.519Z,97127.69
2022-10-05T05:46:17.731Z,97125.25
2022-10-05T05:48:48.425Z,97130.09
2022-10-05T05:51:21.994Z,97132.56
2022-10-05T05:53:53.403Z,97127.84
2022-10-05T05:56:30.519Z,97130.78
2022-10-05T05:59:04.354Z,97129.53
2022-10-05T06:01:40.704Z,97121.88
2022-10-05T06:04:15.771Z,97131.91
2022-10-05T06:06:49.409Z,97129.25
2022-10-05T06:09:22.324Z,97125.59
2022-10-05T06:11:55.102Z,97130.19
2022-10-05T06:14:30.376Z,97134.31
2022-10-05T06:17:04.290Z,97133.50
2022-10-05T06:19:35.041Z,97126.53
2022-10-05T06:22:08.029Z,97125.91
2022-10-05T06:24:41.654Z,97130.22
2022-10-05T06:27:26.338Z,97129.59
2022-10-05T06:30:06.273Z,97120.13
2022-10-05T06:32:39.709Z,97128.06
2022-10-05T06:35:19.082Z,97120.31
2022-10-05T06:38:16.293Z,97127.63
2022-10-05T06:41:01.242Z,97125.19
2022-10-05T06:43:44.800Z,97105.66
2022-10-05T06:46:18.798Z,97128.31
2022-10-05T06:49:13.361Z,97125.34
2022-10-05T06:51:48.942Z,97123.84
2022-10-05T06:54:32.917Z,97122.53
2022-10-05T06:57:05.960Z,97117.84
2022-10-05T06:59:44.984Z,97133.03
2022-10-05T07:02:24.512Z,97131.97
2022-10-05T07:05:20.944Z,97141.13
2022-10-05T07:07:54.959Z,97140.72
2022-10-05T07:10:32.358Z,97146.09
2022-10-05T07:13:36.665Z,97152.50
2022-10-05T07:16:13.520Z,97149.25
2022-10-05T07:18:56.421Z,97141.13
2022-10-05T07:21:35.592Z,97145.66
2022-10-05T07:24:14.957Z,97148.34
2022-10-05T07:26:47.078Z,97137.84
2022-10-05T07:29:24.579Z,97147.63
2022-10-05T07:32:02.268Z,97156.38
2022-10-05T07:34:41.639Z,97138.72
2022-10-05T07:37:30.189Z,97154.47
2022-10-05T07:40:07.912Z,97146.66
2022-10-05T07:42:52.245Z,97154.03
2022-10-05T07:45:29.301Z,97149.72
2022-10-05T07:48:02.778Z,97145.78
2022-10-05T07:50:36.821Z,97150.59
2022-10-05T07:53:15.196Z,97141.91
2022-10-05T07:55:49.153Z,97155.66
2022-10-05T07:58:24.297Z,97157.88
2022-10-05T08:01:05.829Z,97158.19
2022-10-05T08:03:47.275Z,97154.81
2022-10-05T08:06:35.802Z,97154.31
2022-10-05T08:09:12.123Z,97154.88
2022-10-05T08:11:49.189Z,97147.88
2022-10-05T08:14:26.332Z,97142.53
2022-10-05T08:16:58.765Z,97149.38
2022-10-05T08:19:36.346Z,97142.41
2022-10-05T08:22:07.252Z,97131.09
2022-10-05T08:24:43.676Z,97132.69
2022-10-05T08:27:18.114Z,97134.28
2022-10-05T08:29:56.387Z,97127.44
2022-10-05T08:32:26.830Z,97121.78
2022-10-05T08:35:03.620Z,97115.81
2022-10-05T08:37:35.502Z,97129.91
2022-10-05T08:40:22.655Z,97128.91
2022-10-05T08:43:15.777Z,97134.06
2022-10-05T08:46:13.867Z,97126.19
2022-10-05T08:49:17.007Z,97130.81
2022-10-05T08:52:13.157Z,97124.63
2022-10-05T08:55:08.450Z,97132.13
2022-10-05T08:58:17.972Z,97134.13
2022-10-05T09:00:56.782Z,97127.78
2022-10-05T09:03:44.330Z,97137.31
2022-10-05T09:06:51.690Z,97126.31
2022-10-05T09:10:01.961Z,97128.81
2022-10-05T09:13:19.223Z,97138.28
2022-10-05T09:16:17.568Z,97133.00
2022-10-05T09:19:19.229Z,97124.97
2022-10-05T09:21:57.914Z,97132.84
2022-10-05T09:24:42.856Z,97129.66
2022-10-05T09:27:16.644Z,97132.19
2022-10-05T09:30:18.393Z,97134.88
2022-10-05T09:33:09.355Z,97136.94
2022-10-05T09:36:24.948Z,97136.19
2022-10-05T09:39:20.234Z,97135.34
2022-10-05T09:42:23.282Z,97137.50
2022-10-05T09:45:26.854Z,97127.69
2022-10-05T09:48:27.897Z,97133.16
2022-10-05T09:51:27.934Z,97125.88
2022-10-05T09:54:37.039Z,97127.44
2022-10-05T09:57:39.500Z,97122.94
2022-10-05T10:00:16.584Z,97118.75
2022-10-05T10:03:21.155Z,97122.34
2022-10-05T10:06:14.967Z,97119.88
2022-10-05T10:09:08.566Z,97115.97
2022-10-05T10:11:55.330Z,97098.72
2022-10-05T10:14:49.959Z,97122.09
2022-10-05T10:17:35.298Z,97123.69
2022-10-05T10:20:35.734Z,97117.53
2022-10-05T10:23:16.866Z,97108.97
2022-10-05T10:26:02.418Z,97105.81
2022-10-05T10:29:00.259Z,97111.78
2022-10-05T10:32:05.245Z,97106.41
2022-10-05T10:35:09.479Z,97098.25
2022-10-05T10:37:59.529Z,97099.66
2022-10-05T10:40:38.830Z,97103.03
2022-10-05T10:43:44.025Z,97102.03
2022-10-05T10:46:25.236Z,97096.59
2022-10-05T10:49:03.090Z,97095.72
2022-10-05T10:51:54.800Z,97095.63
2022-10-05T10:54:52.647Z,97103.16
2022-10-05T10:57:29.873Z,97094.34
2022-10-05T11:00:23.870Z,97092.66
2022-10-05T11:03:34.012Z,97089.75
2022-10-05T11:06:18.909Z,97090.53
2022-10-05T11:09:09.799Z,97084.19
2022-10-05T11:11:58.486Z,97081.06
2022-10-05T11:14:53.769Z,97081.03
2022-10-05T11:17:33.565Z,97075.41
2022-10-05T11:20:49.053Z,97079.03
2022-10-05T11:23:46.165Z,97068.91
2022-10-05T11:26:32.430Z,97073.25
2022-10-05T11:29:18.178Z,97067.75
2022-10-05T11:32:17.835Z,97069.16
2022-10-05T11:35:16.141Z,97057.41
2022-10-05T11:38:02.877Z,97056.97
2022-10-05T11:41:06.679Z,97055.59
2022-10-05T11:44:06.109Z,97055.34
2022-10-05T11:46:42.184Z,97047.53
2022-10-05T11:49:27.898Z,97041.31
2022-10-05T11:52:08.315Z,97042.25
2022-10-05T11:55:11.438Z,97032.66
2022-10-05T11:57:48.971Z,97026.44
2022-10-05T12:00:19.705Z,97021.78
2022-10-05T12:03:16.810Z,97016.47
2022-10-05T12:05:58.687Z,97012.38
2022-10-05T12:08:36.666Z,97016.94
2022-10-05T12:11:26.252Z,97009.66
2022-10-05T12:14:00.568Z,97003.56
2022-10-05T12:16:34.785Z,97009.63
2022-10-05T12:19:10.667Z,97003.47
2022-10-05T12:21:45.740Z,97009.25
2022-10-05T12:24:21.198Z,97001.97
2022-10-05T12:26:59.131Z,97002.34
2022-10-05T12:29:32.154Z,96999.78
2022-10-05T12:32:05.304Z,96989.63
2022-10-05T12:34:48.636Z,96998.41
2022-10-05T12:37:38.814Z,96997.50
2022-10-05T12:40:18.617Z,96987.38
2022-10-05T12:42:53.082Z,96987.56
2022-10-05T12:45:31.044Z,96981.47
2022-10-05T12:48:18.815Z,96985.25
2022-10-05T12:50:50.641Z,96988.78
2022-10-05T12:53:43.131Z,96984.44
2022-10-05T12:56:17.089Z,96979.94
2022-10-05T12:58:53.667Z,96980.56
2022-10-05T13:01:30.887Z,96989.81
2022-10-05T13:04:15.165Z,96978.00
2022-10-05T13:06:50.028Z,96975.31
2022-10-05T13:09:29.214Z,96977.72
2022-10-05T13:12:04.226Z,96975.63
2022-10-05T13:14:52.046Z,96968.84
2022-10-05T13:17:29.717Z,96973.34
2022-10-05T13:20:00.168Z,96972.41
2022-10-05T13:22:37.623Z,96975.13
2022-10-05T13:25:22.649Z,96974.69
2022-10-05T13:27:59.925Z,96960.06
2022-10-05T13:30:28.687Z,96965.44
2022-10-05T13:33:01.745Z,96970.38
2022-10-05T13:35:44.930Z,96969.88
2022-10-05T13:38:30.038Z,96966.38
2022-10-05T13:41:06.515Z,96968.00
2022-10-05T13:43:40.720Z,96969.69
2022-10-05T13:46:18.597Z,96971.00
2022-10-05T13:48:56.765Z,96963.66
2022-10-05T13:51:28.128Z,96968.00
2022-10-05T13:54:04.726Z,96970.22
2022-10-05T13:56:38.525Z,96965.63
2022-10-05T13:59:19.789Z,96970.72
2022-10-05T14:01:53.652Z,96965.38
2022-10-05T14:04:24.536Z,96968.63
2022-10-05T14:07:22.848Z,96959.97
2022-10-05T14:09:50.853Z,96962.97
2022-10-05T14:12:23.348Z,96964.88
2022-10-05T14:14:53.043Z,96967.88
2022-10-05T14:17:38.991Z,96958.06
2022-10-05T14:20:23.553Z,96954.78
2022-10-05T14:22:55.615Z,96959.16
2022-10-05T14:25:23.449Z,96957.00
2022-10-05T14:28:00.701Z,96954.31
2022-10-05T14:30:30.169Z,96948.63
2022-10-05T14:33:07.886Z,96954.34
2022-10-05T14:35:48.926Z,96959.19
2022-10-05T14:38:22.783Z,96953.78
2022-10-05T14:41:16.127Z,96962.19
2022-10-05T14:43:53.598Z,96950.81
2022-10-05T14:46:28.210Z,96948.09
2022-10-05T14:49:13.815Z,96960.53
2022-10-05T14:51:42.746Z,96954.84
2022-10-05T14:54:31.025Z,96956.75
2022-10-05T14:57:06.374Z,96947.25
2022-10-05T15:00:04.253Z,96949.72
2022-10-05T15:03:03.548Z,96952.44
2022-10-05T15:05:36.793Z,96941.88
2022-10-05T15:08:21.068Z,96958.13
2022-10-05T15:10:52.191Z,96951.63
2022-10-05T15:13:23.196Z,96953.50
2022-10-05T15:15:55.494Z,96955.09
2022-10-05T15:18:32.384Z,96950.22
2022-10-05T15:21:17.348Z,96959.94
2022-10-05T15:23:52.828Z,96952.25
2022-10-05T15:26:36.406Z,96958.50
2022-10-05T15:29:12.133Z,96958.44
2022-10-05T15:31:50.196Z,96961.16
2022-10-05T15:34:26.983Z,96968.16
2022-10-05T15:37:00.306Z,96963.31
2022-10-05T15:39:36.888Z,96963.53
2022-10-05T15:42:08.146Z,96960.00
2022-10-05T15:44:52.046Z,96965.41
2022-10-05T15:47:26.628Z,96966.19
2022-10-05T15:50:03.769Z,96967.47
2022-10-05T15:52:37.702Z,96974.78
2022-10-05T15:55:35.091Z,96972.28
2022-10-05T15:58:36.799Z,96970.38
2022-10-05T16:01:11.143Z,96972.50
2022-10-05T16:03:49.083Z,96963.25
2022-10-05T16:06:48.745Z,96977.28
2022-10-05T16:09:33.152Z,96975.38
2022-10-05T16:12:10.106Z,96973.19
2022-10-05T16:14:55.056Z,96965.00
2022-10-05T16:17:36.875Z,96980.72
2022-10-05T16:20:21.844Z,96984.50
2022-10-05T16:22:59.656Z,96984.50
2022-10-05T16:25:35.202Z,96987.66
2022-10-05T16:28:16.987Z,96982.22
2022-10-05T16:30:55.929Z,96982.63
2022-10-05T16:33:32.517Z,96993.09
2022-10-05T16:36:10.530Z,97005.75
2022-10-05T16:38:46.915Z,97003.09
2022-10-05T16:41:20.916Z,96998.72
2022-10-05T16:43:54.978Z,97012.41
2022-10-05T16:46:30.699Z,97013.69
2022-10-05T16:49:07.721Z,97019.59
2022-10-05T16:51:44.445Z,97021.88
2022-10-05T16:54:19.147Z,97026.63
2022-10-05T16:56:52.182Z,97018.16
2022-10-05T16:59:43.239Z,97023.50
2022-10-05T17:02:20.609Z,97027.94
2022-10-05T17:05:00.809Z,97027.19
2022-10-05T17:07:50.351Z,97034.66
2022-10-05T17:10:47.465Z,97042.50
2022-10-05T17:13:29.609Z,97045.13
2022-10-05T17:16:07.199Z,97046.94
2022-10-05T17:19:19.181Z,97059.00
2022-10-05T17:21:57.359Z,97066.28
2022-10-05T17:24:34.303Z,97073.22
2022-10-05T17:27:18.707Z,97066.81
2022-10-05T17:29:51.731Z,97075.38
2022-10-05T17:32:36.118Z,97072.59
2022-10-05T17:35:18.800Z,97081.59
2022-10-05T17:38:14.447Z,97086.97
2022-10-05T17:41:05.486Z,97094.81
2022-10-05T17:43:34.681Z,97074.56
2022-10-05T17:46:06.162Z,97096.59
2022-10-05T17:49:06.705Z,97099.19
2022-10-05T17:52:17.963Z,97100.19
2022-10-05T17:55:30.397Z,97102.31
2022-10-05T17:58:01.977Z,97099.13
2022-10-05T18:01:06.610Z,97108.16
2022-10-05T18:03:40.739Z,97104.25
2022-10-05T18:06:37.251Z,97107.19
2022-10-05T18:09:30.697Z,97111.94
2022-10-05T18:12:36.960Z,97107.28
2022-10-05T18:15:31.133Z,97109.16
2022-10-05T18:18:20.469Z,97115.19
2022-10-05T18:21:08.381Z,97119.31
2022-10-05T18:23:36.674Z,97122.75
2022-10-05T18:26:20.678Z,97118.41
2022-10-05T18:28:58.048Z,97134.47
2022-10-05T18:31:34.312Z,97140.81
2022-10-05T18:34:14.247Z,97139.78
2022-10-05T18:37:08.537Z,97154.63
2022-10-05T18:39:56.632Z,97158.63
2022-10-05T18:42:33.585Z,97157.50
2022-10-05T18:45:11.088Z,97163.34
2022-10-05T18:47:48.239Z,97168.72
2022-10-05T18:50:26.597Z,97166.25
2022-10-05T18:53:09.563Z,97178.06
2022-10-05T18:55:42.453Z,97172.13
2022-10-05T18:58:25.901Z,97181.34
2022-10-05T19:01:14.584Z,97180.19
2022-10-05T19:03:56.522Z,97182.66
2022-10-05T19:06:27.966Z,97189.31
2022-10-05T19:09:08.323Z,97186.63
2022-10-05T19:11:43.033Z,97195.03
2022-10-05T19:14:18.586Z,97195.19
2022-10-05T19:16:58.659Z,97196.94
2022-10-05T19:19:43.807Z,97174.97
2022-10-05T19:22:19.665Z,97189.09
2022-10-05T19:25:07.133Z,97196.47
2022-10-05T19:27:45.243Z,97206.75
2022-10-05T19:30:19.766Z,97209.81
2022-10-05T19:33:08.657Z,97206.06
2022-10-05T19:35:53.626Z,97211.44
2022-10-05T19:38:30.296Z,97217.84
2022-10-05T19:41:04.343Z,97220.88
2022-10-05T19:43:43.122Z,97226.72
2022-10-05T19:46:19.865Z,97222.06
2022-10-05T19:48:49.776Z,97233.28
2022-10-05T19:51:29.389Z,97226.97
2022-10-05T19:54:01.214Z,97235.50
2022-10-05T19:56:33.424Z,97236.16
2022-10-05T19:59:14.082Z,97245.03
2022-10-05T20:01:49.077Z,97242.22
2022-10-05T20:04:33.037Z,97251.53
2022-10-05T20:07:02.924Z,97246.97
2022-10-05T20:09:49.392Z,97250.34
2022-10-05T20:12:17.103Z,97275.09
2022-10-05T20:15:04.820Z,97265.72
2022-10-05T20:17:49.715Z,97273.31
2022-10-05T20:20:38.263Z,97269.03
2022-10-05T20:23:24.337Z,97279.13
2022-10-05T20:26:06.074Z,97283.09
2022-10-05T20:28:34.154Z,97291.81
2022-10-05T20:31:01.892Z,97299.41
2022-10-05T20:33:30.348Z,97301.16
2022-10-05T20:35:58.021Z,97313.28
2022-10-05T20:38:27.426Z,97313.88
2022-10-05T20:40:55.386Z,97320.75
2022-10-05T20:43:23.082Z,97325.97
2022-10-05T20:45:53.684Z,97331.56
2022-10-05T20:48:21.355Z,97340.41
2022-10-05T20:50:49.026Z,97333.88
2022-10-05T20:53:16.693Z,97334.25
2022-10-05T20:55:45.740Z,97327.16
2022-10-05T20:58:13.444Z,97344.28
2022-10-05T21:00:58.840Z,97342.97
2022-10-05T21:03:27.020Z,97349.81
2022-10-05T21:05:54.652Z,97354.56
2022-10-05T21:08:22.322Z,97362.47
2022-10-05T21:10:51.421Z,97360.03
2022-10-05T21:13:19.070Z,97359.88
2022-10-05T21:15:46.734Z,97364.19
2022-10-05T21:18:15.666Z,97359.94
2022-10-05T21:20:50.487Z,97349.94
2022-10-05T21:23:18.150Z,97366.91
2022-10-05T21:25:45.793Z,97369.59
2022-10-05T21:28:15.152Z,97363.44
2022-10-05T21:30:42.861Z,97366.75
2022-10-05T21:33:10.719Z,97379.16
2022-10-05T21:35:38.380Z,97384.28
2022-10-05T21:38:06.033Z,97380.78
2022-10-05T21:40:33.704Z,97381.59
2022-10-05T21:43:02.267Z,97375.66
2022-10-05T21:45:31.944Z,97378.69
2022-10-05T21:47:59.785Z,97377.66
2022-10-05T21:50:27.832Z,97386.16
2022-10-05T21:52:55.687Z,97381.22
2022-10-05T21:55:23.376Z,97383.94
2022-10-05T21:57:51.130Z,97382.00
2022-10-05T22:00:19.162Z,97387.13
2022-10-05T22:02:48.288Z,97389.22
2022-10-05T22:05:16.438Z,97356.41
2022-10-05T22:07:44.170Z,97384.28
2022-10-05T22:10:11.968Z,97390.13
2022-10-05T22:12:41.439Z,97389.31
2022-10-05T22:15:10.101Z,97371.94
2022-10-05T22:17:38.810Z,97392.63
2022-10-05T22:20:11.555Z,97396.06
2022-10-05T22:22:39.189Z,97402.72
2022-10-05T22:25:07.715Z,97371.97
2022-10-05T22:27:36.492Z,97395.56
2022-10-05T22:30:05.655Z,97399.75
2022-10-05T22:32:33.379Z,97405.69
2022-10-05T22:35:01.055Z,97398.53
2022-10-05T22:37:30.056Z,97408.78
2022-10-05T22:39:57.757Z,97409.63
2022-10-05T22:42:25.516Z,97412.72
2022-10-05T22:44:53.160Z,97415.03
2022-10-05T22:47:20.811Z,97411.28
2022-10-05T22:49:48.454Z,97409.66
2022-10-05T22:52:16.215Z,97416.91
2022-10-05T22:54:45.261Z,97412.13
2022-10-05T22:57:13.097Z,97413.13
2022-10-05T22:59:40.734Z,97418.75
2022-10-05T23:02:09.511Z,97423.06
2022-10-05T23:04:37.510Z,97411.75
2022-10-05T23:11:01.521Z,97424.78
2022-10-05T23:13:29.304Z,97430.34
2022-10-05T23:15:57.070Z,97431.59
2022-10-05T23:18:25.519Z,97428.34
2022-10-05T23:20:54.696Z,97438.59
2022-10-05T23:23:22.852Z,97429.97
2022-10-05T23:26:33.519Z,97419.50
2022-10-05T23:29:05.284Z,97437.84
2022-10-05T23:31:33.589Z,97435.38
2022-10-05T23:34:01.413Z,97441.59
2022-10-05T23:36:32.286Z,97442.38
2022-10-05T23:39:01.017Z,97431.28
2022-10-05T23:41:28.773Z,97447.13
2022-10-05T23:43:56.678Z,97445.88
2022-10-05T23:46:25.800Z,97449.78
2022-10-05T23:48:53.527Z,97451.66
2022-10-05T23:51:21.238Z,97449.78
2022-10-05T23:53:48.960Z,97457.22
2022-10-05T23:56:16.724Z,97456.81
2022-10-05T23:58:44.966Z,97462.56
